sensor_id;sensor_type;location;lat;lon;timestamp;P1;durP1;ratioP1;P2;durP2;ratioP2
8895;SDS011;4484;48.928;10.066;2023-10-09T00:02:07;11.37;;;3.60;;
8895;SDS011;4484;48.928;10.066;2023-10-09T00:04:36;8.27;;;3.90;;
8895;SDS011;4484;48.928;10.066;2023-10-09T00:07:08;7.00;;;3.40;;
8895;SDS011;4484;48.928;10.066;2023-10-09T00:09:36;5.87;;;3.33;;
8895;SDS011;4484;48.928;10.066;2023-10-09T00:12:29;14.37;;;4.10;;
8895;SDS011;4484;48.928;10.066;2023-10-09T00:14:56;10.73;;;3.90;;
8895;SDS011;4484;48.928;10.066;2023-10-09T00:17:28;6.67;;;3.23;;
8895;SDS011;4484;48.928;10.066;2023-10-09T00:19:57;9.93;;;3.00;;
8895;SDS011;4484;48.928;10.066;2023-10-09T00:22:26;11.70;;;3.60;;
8895;SDS011;4484;48.928;10.066;2023-10-09T00:24:55;11.73;;;3.40;;
8895;SDS011;4484;48.928;10.066;2023-10-09T00:27:41;13.17;;;4.10;;
8895;SDS011;4484;48.928;10.066;2023-10-09T00:30:13;10.57;;;3.67;;
8895;SDS011;4484;48.928;10.066;2023-10-09T00:32:45;7.20;;;3.70;;
8895;SDS011;4484;48.928;10.066;2023-10-09T00:35:25;9.83;;;3.30;;
8895;SDS011;4484;48.928;10.066;2023-10-09T00:38:10;10.30;;;3.50;;
8895;SDS011;4484;48.928;10.066;2023-10-09T00:40:46;9.63;;;3.67;;
8895;SDS011;4484;48.928;10.066;2023-10-09T00:43:19;8.33;;;3.23;;
8895;SDS011;4484;48.928;10.066;2023-10-09T00:45:46;8.80;;;3.37;;
8895;SDS011;4484;48.928;10.066;2023-10-09T00:48:13;11.87;;;3.33;;
8895;SDS011;4484;48.928;10.066;2023-10-09T00:50:48;12.60;;;3.47;;
8895;SDS011;4484;48.928;10.066;2023-10-09T00:53:20;9.47;;;3.60;;
8895;SDS011;4484;48.928;10.066;2023-10-09T00:55:57;8.87;;;3.10;;
8895;SDS011;4484;48.928;10.066;2023-10-09T00:58:32;12.87;;;3.40;;
8895;SDS011;4484;48.928;10.066;2023-10-09T01:01:02;12.37;;;3.70;;
8895;SDS011;4484;48.928;10.066;2023-10-09T01:03:30;9.73;;;3.67;;
8895;SDS011;4484;48.928;10.066;2023-10-09T01:06:01;12.10;;;3.53;;
8895;SDS011;4484;48.928;10.066;2023-10-09T01:08:35;8.97;;;2.83;;
8895;SDS011;4484;48.928;10.066;2023-10-09T01:11:11;8.60;;;3.13;;
8895;SDS011;4484;48.928;10.066;2023-10-09T01:13:46;14.13;;;4.07;;
8895;SDS011;4484;48.928;10.066;2023-10-09T01:16:14;13.20;;;3.30;;
8895;SDS011;4484;48.928;10.066;2023-10-09T01:18:44;12.97;;;3.80;;
8895;SDS011;4484;48.928;10.066;2023-10-09T01:21:13;18.03;;;4.03;;
8895;SDS011;4484;48.928;10.066;2023-10-09T01:23:45;13.93;;;3.90;;
8895;SDS011;4484;48.928;10.066;2023-10-09T01:26:42;20.07;;;4.43;;
8895;SDS011;4484;48.928;10.066;2023-10-09T01:29:21;16.93;;;3.67;;
8895;SDS011;4484;48.928;10.066;2023-10-09T01:31:56;12.10;;;3.23;;
8895;SDS011;4484;48.928;10.066;2023-10-09T01:34:30;13.97;;;3.37;;
8895;SDS011;4484;48.928;10.066;2023-10-09T01:37:08;15.80;;;3.83;;
8895;SDS011;4484;48.928;10.066;2023-10-09T01:39:39;12.17;;;3.97;;
8895;SDS011;4484;48.928;10.066;2023-10-09T01:42:09;19.60;;;4.07;;
8895;SDS011;4484;48.928;10.066;2023-10-09T01:44:37;12.37;;;4.07;;
8895;SDS011;4484;48.928;10.066;2023-10-09T01:47:10;11.27;;;3.30;;
8895;SDS011;4484;48.928;10.066;2023-10-09T01:49:40;13.23;;;4.00;;
8895;SDS011;4484;48.928;10.066;2023-10-09T01:52:10;16.00;;;3.97;;
8895;SDS011;4484;48.928;10.066;2023-10-09T01:54:43;11.83;;;4.40;;
8895;SDS011;4484;48.928;10.066;2023-10-09T01:57:16;13.03;;;3.53;;
8895;SDS011;4484;48.928;10.066;2023-10-09T01:59:51;9.80;;;3.73;;
8895;SDS011;4484;48.928;10.066;2023-10-09T02:02:21;10.27;;;3.37;;
8895;SDS011;4484;48.928;10.066;2023-10-09T02:05:02;15.37;;;3.50;;
8895;SDS011;4484;48.928;10.066;2023-10-09T02:07:51;10.10;;;3.77;;
8895;SDS011;4484;48.928;10.066;2023-10-09T02:10:19;13.33;;;3.97;;
8895;SDS011;4484;48.928;10.066;2023-10-09T02:12:59;12.50;;;4.13;;
8895;SDS011;4484;48.928;10.066;2023-10-09T02:15:43;17.13;;;3.77;;
8895;SDS011;4484;48.928;10.066;2023-10-09T02:18:14;9.17;;;3.23;;
8895;SDS011;4484;48.928;10.066;2023-10-09T02:23:38;11.77;;;3.43;;
8895;SDS011;4484;48.928;10.066;2023-10-09T02:26:07;11.53;;;3.57;;
8895;SDS011;4484;48.928;10.066;2023-10-09T02:28:36;21.57;;;4.27;;
8895;SDS011;4484;48.928;10.066;2023-10-09T02:31:12;11.93;;;3.40;;
8895;SDS011;4484;48.928;10.066;2023-10-09T02:33:39;16.37;;;4.43;;
8895;SDS011;4484;48.928;10.066;2023-10-09T02:36:08;10.67;;;4.17;;
8895;SDS011;4484;48.928;10.066;2023-10-09T02:38:36;13.07;;;4.27;;
8895;SDS011;4484;48.928;10.066;2023-10-09T02:41:06;16.67;;;4.03;;
8895;SDS011;4484;48.928;10.066;2023-10-09T02:43:39;16.47;;;3.70;;
8895;SDS011;4484;48.928;10.066;2023-10-09T02:46:13;14.23;;;3.97;;
8895;SDS011;4484;48.928;10.066;2023-10-09T02:48:47;12.00;;;4.33;;
8895;SDS011;4484;48.928;10.066;2023-10-09T02:51:28;14.43;;;4.00;;
8895;SDS011;4484;48.928;10.066;2023-10-09T02:53:55;12.17;;;3.77;;
8895;SDS011;4484;48.928;10.066;2023-10-09T02:56:24;10.87;;;3.33;;
8895;SDS011;4484;48.928;10.066;2023-10-09T02:59:12;20.50;;;4.37;;
8895;SDS011;4484;48.928;10.066;2023-10-09T03:01:39;16.67;;;4.10;;
8895;SDS011;4484;48.928;10.066;2023-10-09T03:04:07;14.40;;;5.03;;
8895;SDS011;4484;48.928;10.066;2023-10-09T03:06:38;15.30;;;3.93;;
8895;SDS011;4484;48.928;10.066;2023-10-09T03:09:12;14.17;;;3.80;;
8895;SDS011;4484;48.928;10.066;2023-10-09T03:11:49;16.90;;;4.20;;
8895;SDS011;4484;48.928;10.066;2023-10-09T03:14:29;24.53;;;5.60;;
8895;SDS011;4484;48.928;10.066;2023-10-09T03:16:57;12.80;;;3.87;;
8895;SDS011;4484;48.928;10.066;2023-10-09T03:19:25;12.63;;;3.80;;
8895;SDS011;4484;48.928;10.066;2023-10-09T03:21:54;21.73;;;3.97;;
8895;SDS011;4484;48.928;10.066;2023-10-09T03:24:25;20.83;;;3.83;;
8895;SDS011;4484;48.928;10.066;2023-10-09T03:26:54;11.50;;;4.37;;
8895;SDS011;4484;48.928;10.066;2023-10-09T03:29:22;19.90;;;4.43;;
8895;SDS011;4484;48.928;10.066;2023-10-09T03:31:50;13.67;;;4.20;;
8895;SDS011;4484;48.928;10.066;2023-10-09T03:34:18;17.47;;;4.17;;
8895;SDS011;4484;48.928;10.066;2023-10-09T03:36:48;14.43;;;3.53;;
8895;SDS011;4484;48.928;10.066;2023-10-09T03:39:17;14.07;;;3.97;;
8895;SDS011;4484;48.928;10.066;2023-10-09T03:42:00;20.70;;;3.77;;
8895;SDS011;4484;48.928;10.066;2023-10-09T03:44:32;12.57;;;3.63;;
8895;SDS011;4484;48.928;10.066;2023-10-09T03:47:00;18.03;;;4.70;;
8895;SDS011;4484;48.928;10.066;2023-10-09T03:49:28;18.70;;;4.60;;
8895;SDS011;4484;48.928;10.066;2023-10-09T03:51:56;14.30;;;4.00;;
8895;SDS011;4484;48.928;10.066;2023-10-09T03:54:25;24.17;;;4.83;;
8895;SDS011;4484;48.928;10.066;2023-10-09T03:56:54;20.67;;;4.80;;
8895;SDS011;4484;48.928;10.066;2023-10-09T03:59:25;13.07;;;3.70;;
8895;SDS011;4484;48.928;10.066;2023-10-09T04:01:56;14.37;;;3.80;;
8895;SDS011;4484;48.928;10.066;2023-10-09T04:04:24;16.07;;;4.80;;
8895;SDS011;4484;48.928;10.066;2023-10-09T04:06:51;12.33;;;3.57;;
8895;SDS011;4484;48.928;10.066;2023-10-09T04:09:18;12.10;;;3.10;;
8895;SDS011;4484;48.928;10.066;2023-10-09T04:11:52;6.53;;;3.10;;
8895;SDS011;4484;48.928;10.066;2023-10-09T04:14:38;11.63;;;3.27;;
8895;SDS011;4484;48.928;10.066;2023-10-09T04:17:27;8.87;;;2.80;;
8895;SDS011;4484;48.928;10.066;2023-10-09T04:20:01;8.77;;;3.43;;
8895;SDS011;4484;48.928;10.066;2023-10-09T04:22:44;11.67;;;3.47;;
8895;SDS011;4484;48.928;10.066;2023-10-09T04:25:25;9.10;;;3.70;;
8895;SDS011;4484;48.928;10.066;2023-10-09T04:30:36;11.33;;;3.30;;
8895;SDS011;4484;48.928;10.066;2023-10-09T04:33:09;16.77;;;3.73;;
8895;SDS011;4484;48.928;10.066;2023-10-09T04:35:55;7.33;;;2.93;;
8895;SDS011;4484;48.928;10.066;2023-10-09T04:38:43;15.93;;;4.03;;
8895;SDS011;4484;48.928;10.066;2023-10-09T04:41:40;8.40;;;3.63;;
8895;SDS011;4484;48.928;10.066;2023-10-09T04:44:08;20.93;;;4.43;;
8895;SDS011;4484;48.928;10.066;2023-10-09T04:46:50;11.60;;;3.30;;
8895;SDS011;4484;48.928;10.066;2023-10-09T04:49:40;12.03;;;3.83;;
8895;SDS011;4484;48.928;10.066;2023-10-09T04:52:30;10.40;;;3.63;;
8895;SDS011;4484;48.928;10.066;2023-10-09T04:54:57;12.67;;;3.43;;
8895;SDS011;4484;48.928;10.066;2023-10-09T04:57:44;11.40;;;3.40;;
8895;SDS011;4484;48.928;10.066;2023-10-09T05:00:28;15.70;;;3.90;;
8895;SDS011;4484;48.928;10.066;2023-10-09T05:03:02;14.80;;;4.23;;
8895;SDS011;4484;48.928;10.066;2023-10-09T05:05:39;25.37;;;4.53;;
8895;SDS011;4484;48.928;10.066;2023-10-09T05:08:16;18.70;;;3.90;;
8895;SDS011;4484;48.928;10.066;2023-10-09T05:10:49;14.77;;;3.90;;
8895;SDS011;4484;48.928;10.066;2023-10-09T05:13:27;15.70;;;4.43;;
8895;SDS011;4484;48.928;10.066;2023-10-09T05:16:09;9.00;;;3.30;;
8895;SDS011;4484;48.928;10.066;2023-10-09T05:18:46;20.13;;;3.87;;
8895;SDS011;4484;48.928;10.066;2023-10-09T05:21:34;14.43;;;4.90;;
8895;SDS011;4484;48.928;10.066;2023-10-09T05:24:08;19.53;;;4.10;;
8895;SDS011;4484;48.928;10.066;2023-10-09T05:26:44;11.63;;;3.60;;
8895;SDS011;4484;48.928;10.066;2023-10-09T05:29:16;10.47;;;3.57;;
8895;SDS011;4484;48.928;10.066;2023-10-09T05:31:46;15.77;;;3.60;;
8895;SDS011;4484;48.928;10.066;2023-10-09T05:34:42;7.37;;;2.60;;
8895;SDS011;4484;48.928;10.066;2023-10-09T05:37:29;14.40;;;3.97;;
8895;SDS011;4484;48.928;10.066;2023-10-09T05:40:04;10.80;;;3.50;;
8895;SDS011;4484;48.928;10.066;2023-10-09T05:42:41;17.23;;;3.87;;
8895;SDS011;4484;48.928;10.066;2023-10-09T05:45:13;12.37;;;3.97;;
8895;SDS011;4484;48.928;10.066;2023-10-09T05:47:46;24.90;;;4.73;;
8895;SDS011;4484;48.928;10.066;2023-10-09T05:50:32;12.97;;;3.77;;
8895;SDS011;4484;48.928;10.066;2023-10-09T05:53:04;13.37;;;3.70;;
8895;SDS011;4484;48.928;10.066;2023-10-09T05:55:56;14.67;;;3.93;;
8895;SDS011;4484;48.928;10.066;2023-10-09T05:58:42;18.30;;;4.27;;
8895;SDS011;4484;48.928;10.066;2023-10-09T06:01:29;12.43;;;3.53;;
8895;SDS011;4484;48.928;10.066;2023-10-09T06:04:14;10.60;;;3.10;;
8895;SDS011;4484;48.928;10.066;2023-10-09T06:06:42;17.77;;;4.10;;
8895;SDS011;4484;48.928;10.066;2023-10-09T06:09:13;13.30;;;4.07;;
8895;SDS011;4484;48.928;10.066;2023-10-09T06:11:42;16.30;;;4.17;;
8895;SDS011;4484;48.928;10.066;2023-10-09T06:14:16;15.93;;;3.73;;
8895;SDS011;4484;48.928;10.066;2023-10-09T06:17:12;10.47;;;3.87;;
8895;SDS011;4484;48.928;10.066;2023-10-09T06:19:39;11.37;;;3.30;;
8895;SDS011;4484;48.928;10.066;2023-10-09T06:22:15;13.93;;;3.67;;
8895;SDS011;4484;48.928;10.066;2023-10-09T06:25:00;16.13;;;3.67;;
8895;SDS011;4484;48.928;10.066;2023-10-09T06:27:35;17.00;;;3.50;;
8895;SDS011;4484;48.928;10.066;2023-10-09T06:30:02;20.03;;;3.90;;
8895;SDS011;4484;48.928;10.066;2023-10-09T06:32:50;12.20;;;3.47;;
8895;SDS011;4484;48.928;10.066;2023-10-09T06:35:24;13.77;;;3.50;;
8895;SDS011;4484;48.928;10.066;2023-10-09T06:37:57;8.63;;;3.53;;
8895;SDS011;4484;48.928;10.066;2023-10-09T06:40:28;18.57;;;4.43;;
8895;SDS011;4484;48.928;10.066;2023-10-09T06:43:18;12.57;;;4.20;;
8895;SDS011;4484;48.928;10.066;2023-10-09T06:45:52;8.60;;;3.13;;
8895;SDS011;4484;48.928;10.066;2023-10-09T06:48:21;14.83;;;3.57;;
8895;SDS011;4484;48.928;10.066;2023-10-09T06:51:07;13.50;;;3.57;;
8895;SDS011;4484;48.928;10.066;2023-10-09T06:54:01;13.40;;;3.37;;
8895;SDS011;4484;48.928;10.066;2023-10-09T06:56:33;11.33;;;3.57;;
8895;SDS011;4484;48.928;10.066;2023-10-09T06:59:04;15.87;;;3.43;;
8895;SDS011;4484;48.928;10.066;2023-10-09T07:01:51;17.90;;;3.53;;
8895;SDS011;4484;48.928;10.066;2023-10-09T07:04:37;13.83;;;3.83;;
8895;SDS011;4484;48.928;10.066;2023-10-09T07:07:04;14.70;;;3.83;;
8895;SDS011;4484;48.928;10.066;2023-10-09T07:09:39;10.50;;;3.07;;
8895;SDS011;4484;48.928;10.066;2023-10-09T07:12:09;16.27;;;4.17;;
8895;SDS011;4484;48.928;10.066;2023-10-09T07:14:40;15.17;;;4.10;;
8895;SDS011;4484;48.928;10.066;2023-10-09T07:17:07;11.57;;;2.90;;
8895;SDS011;4484;48.928;10.066;2023-10-09T07:19:54;10.07;;;3.57;;
8895;SDS011;4484;48.928;10.066;2023-10-09T07:22:21;20.23;;;3.80;;
8895;SDS011;4484;48.928;10.066;2023-10-09T07:24:49;10.83;;;3.40;;
8895;SDS011;4484;48.928;10.066;2023-10-09T07:27:23;16.70;;;3.57;;
8895;SDS011;4484;48.928;10.066;2023-10-09T07:30:10;13.50;;;3.20;;
8895;SDS011;4484;48.928;10.066;2023-10-09T07:35:41;13.47;;;3.60;;
8895;SDS011;4484;48.928;10.066;2023-10-09T07:38:16;17.17;;;3.37;;
8895;SDS011;4484;48.928;10.066;2023-10-09T07:40:48;10.40;;;3.77;;
8895;SDS011;4484;48.928;10.066;2023-10-09T07:43:46;17.07;;;3.93;;
8895;SDS011;4484;48.928;10.066;2023-10-09T07:46:16;14.57;;;3.27;;
8895;SDS011;4484;48.928;10.066;2023-10-09T07:48:57;16.93;;;3.47;;
8895;SDS011;4484;48.928;10.066;2023-10-09T07:51:36;13.77;;;3.57;;
8895;SDS011;4484;48.928;10.066;2023-10-09T07:54:04;15.73;;;3.40;;
8895;SDS011;4484;48.928;10.066;2023-10-09T07:56:38;12.97;;;3.10;;
8895;SDS011;4484;48.928;10.066;2023-10-09T07:59:08;10.57;;;2.80;;
8895;SDS011;4484;48.928;10.066;2023-10-09T08:01:40;16.13;;;4.40;;
8895;SDS011;4484;48.928;10.066;2023-10-09T08:04:26;9.60;;;3.03;;
8895;SDS011;4484;48.928;10.066;2023-10-09T08:07:12;9.30;;;2.77;;
8895;SDS011;4484;48.928;10.066;2023-10-09T08:10:20;11.70;;;4.00;;
8895;SDS011;4484;48.928;10.066;2023-10-09T08:12:47;11.00;;;3.13;;
8895;SDS011;4484;48.928;10.066;2023-10-09T08:15:17;17.27;;;3.90;;
8895;SDS011;4484;48.928;10.066;2023-10-09T08:17:45;13.73;;;3.50;;
8895;SDS011;4484;48.928;10.066;2023-10-09T08:20:23;11.93;;;3.00;;
8895;SDS011;4484;48.928;10.066;2023-10-09T08:22:52;15.90;;;3.77;;
8895;SDS011;4484;48.928;10.066;2023-10-09T08:25:22;15.23;;;3.77;;
8895;SDS011;4484;48.928;10.066;2023-10-09T08:27:54;12.57;;;3.63;;
8895;SDS011;4484;48.928;10.066;2023-10-09T08:30:24;15.40;;;3.47;;
8895;SDS011;4484;48.928;10.066;2023-10-09T08:32:52;16.13;;;3.83;;
8895;SDS011;4484;48.928;10.066;2023-10-09T08:35:32;18.60;;;3.80;;
8895;SDS011;4484;48.928;10.066;2023-10-09T08:38:02;11.40;;;3.53;;
8895;SDS011;4484;48.928;10.066;2023-10-09T08:40:35;10.83;;;3.30;;
8895;SDS011;4484;48.928;10.066;2023-10-09T08:43:09;14.03;;;3.83;;
8895;SDS011;4484;48.928;10.066;2023-10-09T08:45:41;9.73;;;3.30;;
8895;SDS011;4484;48.928;10.066;2023-10-09T08:48:14;12.23;;;3.07;;
8895;SDS011;4484;48.928;10.066;2023-10-09T08:50:42;17.33;;;3.77;;
8895;SDS011;4484;48.928;10.066;2023-10-09T08:53:10;15.00;;;3.23;;
8895;SDS011;4484;48.928;10.066;2023-10-09T08:55:38;14.47;;;3.40;;
8895;SDS011;4484;48.928;10.066;2023-10-09T08:58:07;13.40;;;3.77;;
8895;SDS011;4484;48.928;10.066;2023-10-09T09:00:43;14.20;;;4.00;;
8895;SDS011;4484;48.928;10.066;2023-10-09T09:03:15;13.03;;;3.60;;
8895;SDS011;4484;48.928;10.066;2023-10-09T09:05:47;15.60;;;3.47;;
8895;SDS011;4484;48.928;10.066;2023-10-09T09:08:22;15.10;;;3.63;;
8895;SDS011;4484;48.928;10.066;2023-10-09T09:11:05;12.40;;;3.57;;
8895;SDS011;4484;48.928;10.066;2023-10-09T09:13:39;17.30;;;3.20;;
8895;SDS011;4484;48.928;10.066;2023-10-09T09:18:51;14.20;;;3.20;;
8895;SDS011;4484;48.928;10.066;2023-10-09T09:21:22;20.40;;;4.03;;
8895;SDS011;4484;48.928;10.066;2023-10-09T09:23:53;13.20;;;3.10;;
8895;SDS011;4484;48.928;10.066;2023-10-09T09:26:34;10.63;;;3.60;;
8895;SDS011;4484;48.928;10.066;2023-10-09T09:29:04;16.73;;;3.40;;
8895;SDS011;4484;48.928;10.066;2023-10-09T09:31:35;12.37;;;3.40;;
8895;SDS011;4484;48.928;10.066;2023-10-09T09:34:05;22.90;;;3.57;;
8895;SDS011;4484;48.928;10.066;2023-10-09T09:36:51;15.83;;;3.60;;
8895;SDS011;4484;48.928;10.066;2023-10-09T09:39:25;17.63;;;3.87;;
8895;SDS011;4484;48.928;10.066;2023-10-09T09:42:04;10.57;;;3.50;;
8895;SDS011;4484;48.928;10.066;2023-10-09T09:44:40;11.10;;;3.30;;
8895;SDS011;4484;48.928;10.066;2023-10-09T09:47:12;12.03;;;3.40;;
8895;SDS011;4484;48.928;10.066;2023-10-09T09:49:41;11.97;;;3.87;;
8895;SDS011;4484;48.928;10.066;2023-10-09T09:52:09;13.17;;;3.50;;
8895;SDS011;4484;48.928;10.066;2023-10-09T09:54:38;15.07;;;4.07;;
8895;SDS011;4484;48.928;10.066;2023-10-09T09:57:06;14.90;;;3.73;;
8895;SDS011;4484;48.928;10.066;2023-10-09T09:59:37;12.77;;;3.83;;
8895;SDS011;4484;48.928;10.066;2023-10-09T10:02:20;13.03;;;3.70;;
8895;SDS011;4484;48.928;10.066;2023-10-09T10:04:56;18.97;;;4.37;;
8895;SDS011;4484;48.928;10.066;2023-10-09T10:07:25;15.07;;;3.97;;
8895;SDS011;4484;48.928;10.066;2023-10-09T10:09:56;13.37;;;3.57;;
8895;SDS011;4484;48.928;10.066;2023-10-09T10:18:32;12.83;;;3.43;;
8895;SDS011;4484;48.928;10.066;2023-10-09T10:24:00;13.87;;;3.77;;
8895;SDS011;4484;48.928;10.066;2023-10-09T10:26:36;13.40;;;3.23;;
8895;SDS011;4484;48.928;10.066;2023-10-09T10:31:53;18.20;;;3.83;;
8895;SDS011;4484;48.928;10.066;2023-10-09T10:34:21;15.40;;;3.87;;
8895;SDS011;4484;48.928;10.066;2023-10-09T10:36:52;17.83;;;4.05;;
8895;SDS011;4484;48.928;10.066;2023-10-09T10:39:25;24.20;;;3.97;;
8895;SDS011;4484;48.928;10.066;2023-10-09T10:42:10;18.27;;;4.03;;
8895;SDS011;4484;48.928;10.066;2023-10-09T10:45:02;19.70;;;3.30;;
8895;SDS011;4484;48.928;10.066;2023-10-09T10:47:50;17.02;;;3.40;;
8895;SDS011;4484;48.928;10.066;2023-10-09T10:50:21;14.07;;;3.20;;
8895;SDS011;4484;48.928;10.066;2023-10-09T10:53:18;14.05;;;3.45;;
8895;SDS011;4484;48.928;10.066;2023-10-09T10:55:55;9.20;;;3.25;;
8895;SDS011;4484;48.928;10.066;2023-10-09T10:58:41;13.88;;;3.38;;
8895;SDS011;4484;48.928;10.066;2023-10-09T11:01:35;19.20;;;3.20;;
8895;SDS011;4484;48.928;10.066;2023-10-09T11:04:21;9.23;;;3.07;;
8895;SDS011;4484;48.928;10.066;2023-10-09T11:06:59;12.83;;;3.27;;
8895;SDS011;4484;48.928;10.066;2023-10-09T11:09:45;14.97;;;3.87;;
8895;SDS011;4484;48.928;10.066;2023-10-09T11:12:31;12.83;;;3.50;;
8895;SDS011;4484;48.928;10.066;2023-10-09T11:15:08;13.30;;;3.70;;
8895;SDS011;4484;48.928;10.066;2023-10-09T11:18:01;8.63;;;3.15;;
8895;SDS011;4484;48.928;10.066;2023-10-09T11:20:52;11.85;;;3.25;;
8895;SDS011;4484;48.928;10.066;2023-10-09T11:23:24;17.50;;;3.03;;
8895;SDS011;4484;48.928;10.066;2023-10-09T11:26:03;13.70;;;3.58;;
8895;SDS011;4484;48.928;10.066;2023-10-09T11:31:58;11.95;;;3.38;;
8895;SDS011;4484;48.928;10.066;2023-10-09T11:34:27;17.67;;;4.07;;
8895;SDS011;4484;48.928;10.066;2023-10-09T11:37:02;17.10;;;4.05;;
8895;SDS011;4484;48.928;10.066;2023-10-09T11:39:42;17.90;;;4.23;;
8895;SDS011;4484;48.928;10.066;2023-10-09T11:42:24;10.20;;;3.10;;
8895;SDS011;4484;48.928;10.066;2023-10-09T11:45:19;15.63;;;3.10;;
8895;SDS011;4484;48.928;10.066;2023-10-09T11:47:50;12.00;;;3.75;;
8895;SDS011;4484;48.928;10.066;2023-10-09T11:53:17;18.20;;;4.37;;
8895;SDS011;4484;48.928;10.066;2023-10-09T11:55:48;17.00;;;5.43;;
8895;SDS011;4484;48.928;10.066;2023-10-09T11:58:16;16.60;;;5.10;;
8895;SDS011;4484;48.928;10.066;2023-10-09T12:00:53;16.77;;;4.07;;
8895;SDS011;4484;48.928;10.066;2023-10-09T12:03:26;18.17;;;4.93;;
8895;SDS011;4484;48.928;10.066;2023-10-09T12:05:57;19.03;;;3.73;;
8895;SDS011;4484;48.928;10.066;2023-10-09T12:08:34;17.80;;;3.33;;
8895;SDS011;4484;48.928;10.066;2023-10-09T12:11:04;12.70;;;3.40;;
8895;SDS011;4484;48.928;10.066;2023-10-09T12:13:35;10.77;;;2.90;;
8895;SDS011;4484;48.928;10.066;2023-10-09T12:16:04;8.83;;;3.07;;
8895;SDS011;4484;48.928;10.066;2023-10-09T12:18:37;8.60;;;2.67;;
8895;SDS011;4484;48.928;10.066;2023-10-09T12:21:06;12.83;;;3.17;;
8895;SDS011;4484;48.928;10.066;2023-10-09T12:23:33;12.93;;;2.87;;
8895;SDS011;4484;48.928;10.066;2023-10-09T12:26:04;9.17;;;3.07;;
8895;SDS011;4484;48.928;10.066;2023-10-09T12:28:31;10.47;;;3.20;;
8895;SDS011;4484;48.928;10.066;2023-10-09T12:31:01;10.77;;;3.23;;
8895;SDS011;4484;48.928;10.066;2023-10-09T12:33:28;17.53;;;3.60;;
8895;SDS011;4484;48.928;10.066;2023-10-09T12:35:56;17.27;;;3.63;;
8895;SDS011;4484;48.928;10.066;2023-10-09T12:38:27;12.00;;;3.13;;
8895;SDS011;4484;48.928;10.066;2023-10-09T12:41:04;10.57;;;3.10;;
8895;SDS011;4484;48.928;10.066;2023-10-09T12:43:43;7.63;;;3.07;;
8895;SDS011;4484;48.928;10.066;2023-10-09T12:46:10;9.13;;;3.00;;
8895;SDS011;4484;48.928;10.066;2023-10-09T12:48:43;19.65;;;3.95;;
8895;SDS011;4484;48.928;10.066;2023-10-09T12:51:13;12.10;;;3.83;;
8895;SDS011;4484;48.928;10.066;2023-10-09T12:53:44;10.45;;;3.03;;
8895;SDS011;4484;48.928;10.066;2023-10-09T12:56:12;16.25;;;3.65;;
8895;SDS011;4484;48.928;10.066;2023-10-09T12:58:39;17.48;;;4.07;;
8895;SDS011;4484;48.928;10.066;2023-10-09T13:01:08;11.05;;;3.78;;
8895;SDS011;4484;48.928;10.066;2023-10-09T13:03:37;13.40;;;3.50;;
8895;SDS011;4484;48.928;10.066;2023-10-09T13:06:05;12.07;;;3.67;;
8895;SDS011;4484;48.928;10.066;2023-10-09T13:08:38;11.43;;;4.32;;
8895;SDS011;4484;48.928;10.066;2023-10-09T13:11:08;19.83;;;3.67;;
8895;SDS011;4484;48.928;10.066;2023-10-09T13:13:43;11.07;;;3.33;;
8895;SDS011;4484;48.928;10.066;2023-10-09T13:16:14;14.43;;;3.83;;
8895;SDS011;4484;48.928;10.066;2023-10-09T13:18:57;12.82;;;3.30;;
8895;SDS011;4484;48.928;10.066;2023-10-09T13:21:35;15.13;;;3.40;;
8895;SDS011;4484;48.928;10.066;2023-10-09T13:24:06;18.73;;;3.65;;
8895;SDS011;4484;48.928;10.066;2023-10-09T13:26:42;15.48;;;3.22;;
8895;SDS011;4484;48.928;10.066;2023-10-09T13:29:12;13.55;;;3.85;;
8895;SDS011;4484;48.928;10.066;2023-10-09T13:31:44;17.88;;;4.63;;
8895;SDS011;4484;48.928;10.066;2023-10-09T13:34:14;18.80;;;4.00;;
8895;SDS011;4484;48.928;10.066;2023-10-09T13:36:44;9.95;;;3.50;;
8895;SDS011;4484;48.928;10.066;2023-10-09T13:39:20;16.85;;;4.43;;
8895;SDS011;4484;48.928;10.066;2023-10-09T13:41:54;14.65;;;4.68;;
8895;SDS011;4484;48.928;10.066;2023-10-09T13:44:29;20.95;;;4.35;;
8895;SDS011;4484;48.928;10.066;2023-10-09T13:46:58;12.95;;;3.55;;
8895;SDS011;4484;48.928;10.066;2023-10-09T13:49:34;19.60;;;5.53;;
8895;SDS011;4484;48.928;10.066;2023-10-09T13:52:04;14.90;;;4.40;;
8895;SDS011;4484;48.928;10.066;2023-10-09T13:54:33;23.77;;;5.10;;
8895;SDS011;4484;48.928;10.066;2023-10-09T13:57:01;11.85;;;3.80;;
8895;SDS011;4484;48.928;10.066;2023-10-09T13:59:34;12.57;;;4.15;;
8895;SDS011;4484;48.928;10.066;2023-10-09T14:02:02;18.45;;;6.20;;
8895;SDS011;4484;48.928;10.066;2023-10-09T14:04:36;12.18;;;4.45;;
8895;SDS011;4484;48.928;10.066;2023-10-09T14:07:04;16.10;;;4.75;;
8895;SDS011;4484;48.928;10.066;2023-10-09T14:09:34;14.77;;;5.10;;
8895;SDS011;4484;48.928;10.066;2023-10-09T14:12:05;15.98;;;3.78;;
8895;SDS011;4484;48.928;10.066;2023-10-09T14:14:37;12.05;;;4.03;;
8895;SDS011;4484;48.928;10.066;2023-10-09T14:17:07;11.52;;;3.90;;
8895;SDS011;4484;48.928;10.066;2023-10-09T14:19:40;17.05;;;5.55;;
8895;SDS011;4484;48.928;10.066;2023-10-09T14:22:14;15.07;;;4.18;;
8895;SDS011;4484;48.928;10.066;2023-10-09T14:24:43;15.48;;;4.22;;
8895;SDS011;4484;48.928;10.066;2023-10-09T14:27:11;15.60;;;4.60;;
8895;SDS011;4484;48.928;10.066;2023-10-09T14:29:45;12.32;;;4.13;;
8895;SDS011;4484;48.928;10.066;2023-10-09T14:32:13;14.48;;;4.40;;
8895;SDS011;4484;48.928;10.066;2023-10-09T14:34:40;14.13;;;3.97;;
8895;SDS011;4484;48.928;10.066;2023-10-09T14:37:20;13.75;;;4.75;;
8895;SDS011;4484;48.928;10.066;2023-10-09T14:39:47;19.30;;;4.93;;
8895;SDS011;4484;48.928;10.066;2023-10-09T14:42:17;13.68;;;4.68;;
8895;SDS011;4484;48.928;10.066;2023-10-09T14:44:46;17.65;;;5.28;;
8895;SDS011;4484;48.928;10.066;2023-10-09T14:47:14;8.77;;;4.47;;
8895;SDS011;4484;48.928;10.066;2023-10-09T14:49:41;14.63;;;4.70;;
8895;SDS011;4484;48.928;10.066;2023-10-09T14:52:14;19.63;;;5.10;;
8895;SDS011;4484;48.928;10.066;2023-10-09T14:54:46;15.32;;;4.82;;
8895;SDS011;4484;48.928;10.066;2023-10-09T14:57:14;14.65;;;4.53;;
8895;SDS011;4484;48.928;10.066;2023-10-09T14:59:41;13.82;;;4.80;;
8895;SDS011;4484;48.928;10.066;2023-10-09T15:02:10;8.63;;;4.80;;
8895;SDS011;4484;48.928;10.066;2023-10-09T15:04:39;21.10;;;5.03;;
8895;SDS011;4484;48.928;10.066;2023-10-09T15:07:06;14.05;;;5.00;;
8895;SDS011;4484;48.928;10.066;2023-10-09T15:09:33;15.88;;;5.40;;
8895;SDS011;4484;48.928;10.066;2023-10-09T15:12:03;15.32;;;5.03;;
8895;SDS011;4484;48.928;10.066;2023-10-09T15:14:33;11.88;;;4.85;;
8895;SDS011;4484;48.928;10.066;2023-10-09T15:17:00;16.23;;;4.90;;
8895;SDS011;4484;48.928;10.066;2023-10-09T15:19:29;23.30;;;5.80;;
8895;SDS011;4484;48.928;10.066;2023-10-09T15:21:56;14.13;;;5.47;;
8895;SDS011;4484;48.928;10.066;2023-10-09T15:24:27;13.48;;;5.35;;
8895;SDS011;4484;48.928;10.066;2023-10-09T15:26:56;10.88;;;5.40;;
8895;SDS011;4484;48.928;10.066;2023-10-09T15:29:24;17.55;;;5.72;;
8895;SDS011;4484;48.928;10.066;2023-10-09T15:31:55;11.02;;;4.82;;
8895;SDS011;4484;48.928;10.066;2023-10-09T15:34:23;19.75;;;5.47;;
8895;SDS011;4484;48.928;10.066;2023-10-09T15:36:51;15.38;;;5.28;;
8895;SDS011;4484;48.928;10.066;2023-10-09T15:39:19;15.82;;;5.47;;
8895;SDS011;4484;48.928;10.066;2023-10-09T15:41:50;16.55;;;5.25;;
8895;SDS011;4484;48.928;10.066;2023-10-09T15:44:17;14.48;;;5.05;;
8895;SDS011;4484;48.928;10.066;2023-10-09T15:46:44;14.32;;;4.93;;
8895;SDS011;4484;48.928;10.066;2023-10-09T15:49:13;14.98;;;5.07;;
8895;SDS011;4484;48.928;10.066;2023-10-09T15:51:41;11.75;;;5.15;;
8895;SDS011;4484;48.928;10.066;2023-10-09T15:54:13;13.35;;;5.00;;
8895;SDS011;4484;48.928;10.066;2023-10-09T15:56:45;11.18;;;5.18;;
8895;SDS011;4484;48.928;10.066;2023-10-09T15:59:31;15.13;;;5.55;;
8895;SDS011;4484;48.928;10.066;2023-10-09T16:01:59;13.63;;;4.53;;